createdAt,value
2023-07-03T00:01:39.873Z,28.26
2023-07-03T00:04:18.176Z,28.25
2023-07-03T00:06:54.000Z,28.46
2023-07-03T00:09:51.637Z,28.56
2023-07-03T00:12:38.618Z,28.30
2023-07-03T00:15:23.012Z,28.03
2023-07-03T00:21:46.807Z,28.10
2023-07-03T00:24:58.438Z,28.16
2023-07-03T00:28:07.300Z,28.07
2023-07-03T00:31:13.466Z,28.14
2023-07-03T00:33:42.864Z,27.88
2023-07-03T00:36:29.091Z,28.05
2023-07-03T00:39:03.233Z,27.76
2023-07-03T00:41:33.353Z,27.92
2023-07-03T00:44:08.524Z,27.21
2023-07-03T00:47:05.878Z,27.61
2023-07-03T00:50:03.478Z,27.57
2023-07-03T00:52:36.282Z,27.58
2023-07-03T00:55:26.224Z,27.74
2023-07-03T00:57:55.642Z,27.65
2023-07-03T01:00:42.947Z,27.42
2023-07-03T01:04:18.254Z,27.38
2023-07-03T01:07:06.323Z,26.84
2023-07-03T01:10:15.594Z,27.54
2023-07-03T01:13:18.032Z,27.21
2023-07-03T01:16:31.858Z,27.50
2023-07-03T01:19:26.290Z,27.43
2023-07-03T01:22:34.815Z,27.35
2023-07-03T01:28:48.616Z,27.06
2023-07-03T01:31:27.752Z,27.15
2023-07-03T01:34:24.024Z,27.18
2023-07-03T01:37:27.989Z,27.12
2023-07-03T01:40:05.749Z,27.14
2023-07-03T01:43:11.731Z,27.07
2023-07-03T01:45:56.501Z,26.84
2023-07-03T01:48:30.530Z,26.80
2023-07-03T01:51:12.945Z,26.75
2023-07-03T01:54:11.813Z,26.82
2023-07-03T01:57:02.381Z,26.64
2023-07-03T01:59:45.904Z,26.63
2023-07-03T02:03:14.467Z,26.41
2023-07-03T02:05:52.957Z,26.47
2023-07-03T02:08:34.317Z,26.56
2023-07-03T02:11:39.813Z,25.49
2023-07-03T02:14:25.499Z,25.91
2023-07-03T02:17:20.774Z,25.79
2023-07-03T02:19:53.384Z,25.80
2023-07-03T02:22:50.001Z,25.81
2023-07-03T02:25:29.857Z,25.74
2023-07-03T02:28:22.725Z,25.02
2023-07-03T02:31:12.447Z,25.41
2023-07-03T02:37:20.393Z,25.28
2023-07-03T02:40:27.058Z,24.44
2023-07-03T02:43:14.611Z,24.04
2023-07-03T02:48:41.691Z,24.30
2023-07-03T02:51:23.568Z,24.29
2023-07-03T02:54:05.834Z,23.89
2023-07-03T02:56:42.930Z,23.78
2023-07-03T02:59:38.435Z,23.95
2023-07-03T03:02:09.116Z,23.97
2023-07-03T03:04:50.135Z,23.82
2023-07-03T03:07:24.121Z,23.78
2023-07-03T03:09:59.954Z,23.68
2023-07-03T03:12:40.108Z,23.69
2023-07-03T03:15:15.038Z,23.92
2023-07-03T03:18:03.478Z,24.03
2023-07-03T03:24:31.178Z,23.70
2023-07-03T03:27:08.083Z,23.73
2023-07-03T03:30:00.871Z,23.48
2023-07-03T03:32:39.464Z,23.56
2023-07-03T03:35:09.983Z,23.64
2023-07-03T03:37:55.538Z,23.60
2023-07-03T03:42:09.383Z,23.45
2023-07-03T03:44:58.473Z,23.36
2023-07-03T03:47:53.962Z,23.30
2023-07-03T03:50:29.894Z,23.23
2023-07-03T03:53:12.662Z,23.11
2023-07-03T03:55:58.434Z,23.01
2023-07-03T03:58:40.762Z,22.84
2023-07-03T04:01:43.251Z,22.80
2023-07-03T04:07:58.241Z,22.60
2023-07-03T04:08:12.102Z,22.71
2023-07-03T04:10:40.107Z,22.46
2023-07-03T04:13:10.050Z,22.38
2023-07-03T04:16:09.903Z,22.29
2023-07-03T04:18:54.906Z,22.18
2023-07-03T04:21:29.045Z,22.06
2023-07-03T04:27:51.187Z,21.44
2023-07-03T04:30:43.446Z,21.46
2023-07-03T04:33:28.705Z,21.52
2023-07-03T04:36:01.394Z,21.42
2023-07-03T04:38:33.557Z,21.36
2023-07-03T04:41:27.635Z,21.24
2023-07-03T04:44:22.304Z,21.10
2023-07-03T04:47:20.519Z,21.00
2023-07-03T04:50:00.469Z,20.92
2023-07-03T04:52:52.563Z,20.88
2023-07-03T04:55:26.920Z,20.79
2023-07-03T04:58:04.320Z,20.68
2023-07-03T05:00:42.931Z,20.65
2023-07-03T05:06:43.770Z,20.52
2023-07-03T05:07:16.057Z,20.61
2023-07-03T05:09:22.922Z,20.36
2023-07-03T05:12:13.332Z,20.22
2023-07-03T05:15:13.782Z,20.12
2023-07-03T05:17:56.428Z,19.99
2023-07-03T05:20:35.485Z,19.86
2023-07-03T05:23:38.058Z,19.76
2023-07-03T05:26:57.607Z,19.68
2023-07-03T05:29:41.902Z,19.54
2023-07-03T05:32:53.773Z,19.40
2023-07-03T05:35:26.158Z,19.35
2023-07-03T05:38:18.043Z,19.23
2023-07-03T05:41:09.491Z,19.09
2023-07-03T05:43:54.716Z,18.96
2023-07-03T05:46:24.371Z,18.83
2023-07-03T05:49:00.006Z,18.86
2023-07-03T05:51:48.996Z,18.92
2023-07-03T05:54:28.819Z,18.96
2023-07-03T05:57:14.126Z,18.95
2023-07-03T06:00:04.407Z,18.85
2023-07-03T06:02:49.718Z,18.78
2023-07-03T06:05:48.586Z,18.71
2023-07-03T06:08:18.908Z,18.64
2023-07-03T06:11:00.497Z,18.53
2023-07-03T06:13:51.996Z,18.45
2023-07-03T06:16:46.124Z,18.38
2023-07-03T06:19:29.965Z,18.28
2023-07-03T06:22:18.626Z,18.16
2023-07-03T06:24:59.180Z,18.03
2023-07-03T06:27:45.477Z,17.84
2023-07-03T06:30:18.281Z,17.68
2023-07-03T06:33:04.582Z,17.68
2023-07-03T06:35:41.934Z,17.74
2023-07-03T06:38:19.780Z,17.72
2023-07-03T06:41:05.116Z,17.66
2023-07-03T06:43:43.598Z,17.56
2023-07-03T06:46:26.418Z,17.51
2023-07-03T06:49:24.396Z,17.47
2023-07-03T06:52:18.235Z,17.39
2023-07-03T06:54:56.191Z,17.37
2023-07-03T06:57:35.723Z,17.36
2023-07-03T07:00:23.999Z,17.41
2023-07-03T07:03:18.281Z,17.36
2023-07-03T07:06:18.933Z,17.20
2023-07-03T07:09:20.283Z,17.08
2023-07-03T07:12:33.715Z,17.04
2023-07-03T07:15:00.261Z,16.89
2023-07-03T07:18:00.454Z,16.88
2023-07-03T07:21:34.812Z,16.97
2023-07-03T07:24:06.161Z,16.87
2023-07-03T07:26:45.144Z,16.82
2023-07-03T07:29:31.287Z,16.73
2023-07-03T07:32:38.389Z,16.71
2023-07-03T07:35:36.594Z,16.69
2023-07-03T07:38:13.588Z,16.51
2023-07-03T07:43:57.810Z,16.32
2023-07-03T07:46:55.564Z,16.36
2023-07-03T07:49:47.808Z,16.50
2023-07-03T07:52:26.809Z,16.53
2023-07-03T07:55:14.246Z,16.50
2023-07-03T07:58:00.073Z,16.47
2023-07-03T08:00:38.262Z,16.42
2023-07-03T08:03:31.509Z,16.40
2023-07-03T08:06:09.439Z,16.36
2023-07-03T08:08:48.368Z,16.34
2023-07-03T08:11:20.950Z,16.30
2023-07-03T08:13:59.540Z,16.27
2023-07-03T08:16:38.476Z,16.23
2023-07-03T08:19:12.053Z,16.01
2023-07-03T08:22:06.882Z,15.76
2023-07-03T08:24:47.815Z,15.74
2023-07-03T08:27:18.233Z,15.81
2023-07-03T08:29:57.133Z,15.77
2023-07-03T08:32:37.120Z,15.74
2023-07-03T08:37:59.005Z,15.60
2023-07-03T08:40:39.984Z,15.78
2023-07-03T08:43:24.884Z,15.82
2023-07-03T08:45:56.056Z,15.73
2023-07-03T08:48:43.027Z,15.77
2023-07-03T08:51:22.245Z,15.71
2023-07-03T08:53:58.658Z,15.59
2023-07-03T08:56:39.862Z,15.58
2023-07-03T08:59:14.988Z,15.54
2023-07-03T09:02:07.992Z,15.40
2023-07-03T09:05:08.603Z,15.13
2023-07-03T09:08:07.457Z,15.21
2023-07-03T09:10:59.756Z,15.28
2023-07-03T09:14:00.701Z,15.25
2023-07-03T09:16:54.169Z,15.13
2023-07-03T09:19:35.196Z,15.10
2023-07-03T09:22:17.911Z,15.12
2023-07-03T09:24:59.347Z,15.02
2023-07-03T09:27:35.527Z,14.99
2023-07-03T09:30:15.131Z,14.80
2023-07-03T09:32:47.529Z,14.69
2023-07-03T09:35:37.504Z,14.73
2023-07-03T09:38:25.261Z,14.82
2023-07-03T09:41:08.557Z,14.85
2023-07-03T09:43:51.838Z,14.80
2023-07-03T09:46:26.746Z,14.50
2023-07-03T09:49:22.549Z,14.54
2023-07-03T09:52:02.976Z,14.47
2023-07-03T09:54:45.270Z,14.45
2023-07-03T09:57:28.601Z,14.39
2023-07-03T10:00:16.941Z,14.55
2023-07-03T10:08:33.570Z,14.48
2023-07-03T10:11:18.552Z,14.47
2023-07-03T10:13:57.193Z,14.44
2023-07-03T10:16:44.385Z,14.28
2023-07-03T10:19:24.845Z,14.28
2023-07-03T10:22:00.098Z,14.26
2023-07-03T10:24:34.272Z,14.13
2023-07-03T10:27:16.562Z,14.13
2023-07-03T10:30:01.243Z,14.13
2023-07-03T10:32:48.420Z,14.06
2023-07-03T10:35:43.161Z,13.97
2023-07-03T10:39:04.607Z,13.89
2023-07-03T10:42:06.567Z,13.85
2023-07-03T10:44:45.943Z,13.78
2023-07-03T10:47:43.881Z,13.76
2023-07-03T10:50:24.495Z,13.72
2023-07-03T10:53:36.012Z,13.67
2023-07-03T10:56:26.619Z,13.58
2023-07-03T10:59:39.195Z,13.42
2023-07-03T11:02:34.618Z,13.34
2023-07-03T11:05:29.120Z,13.21
2023-07-03T11:08:14.546Z,13.28
2023-07-03T11:10:58.285Z,13.16
2023-07-03T11:14:09.224Z,13.00
2023-07-03T11:16:53.383Z,13.02
2023-07-03T11:28:26.115Z,12.92
2023-07-03T11:31:09.611Z,12.77
2023-07-03T11:36:50.611Z,12.87
2023-07-03T11:39:52.658Z,13.04
2023-07-03T11:45:45.044Z,12.73
2023-07-03T11:48:33.766Z,12.86
2023-07-03T11:51:18.250Z,12.79
2023-07-03T11:53:59.759Z,12.91
2023-07-03T11:56:39.667Z,12.84
2023-07-03T11:59:27.042Z,12.92
2023-07-03T12:02:19.552Z,12.84
2023-07-03T12:04:54.372Z,12.81
2023-07-03T12:07:39.554Z,12.81
2023-07-03T12:10:46.742Z,12.77
2023-07-03T12:13:47.458Z,12.64
2023-07-03T12:16:24.392Z,12.73
2023-07-03T12:19:09.752Z,12.64
2023-07-03T12:21:52.565Z,12.58
2023-07-03T12:24:40.745Z,12.54
2023-07-03T12:27:17.833Z,12.66
2023-07-03T12:29:54.419Z,12.58
2023-07-03T12:32:33.982Z,12.36
2023-07-03T12:35:17.542Z,12.34
2023-07-03T12:37:57.519Z,12.27
2023-07-03T12:40:34.840Z,12.46
2023-07-03T12:43:30.026Z,12.48
2023-07-03T12:46:08.026Z,12.48
2023-07-03T12:48:53.338Z,12.32
2023-07-03T12:51:28.038Z,12.35
2023-07-03T12:54:03.922Z,12.45
2023-07-03T12:56:39.928Z,12.34
2023-07-03T12:59:25.506Z,12.34
2023-07-03T13:02:07.995Z,12.23
2023-07-03T13:04:40.674Z,12.32
2023-07-03T13:07:16.138Z,12.36
2023-07-03T13:10:08.519Z,12.43
2023-07-03T13:12:41.030Z,12.23
2023-07-03T13:15:36.964Z,11.71
2023-07-03T13:18:12.840Z,12.03
2023-07-03T13:21:00.585Z,12.25
2023-07-03T13:23:45.547Z,12.23
2023-07-03T13:26:24.955Z,12.13
2023-07-03T13:29:02.864Z,12.10
2023-07-03T13:31:51.611Z,12.09
2023-07-03T13:34:28.910Z,11.93
2023-07-03T13:37:12.050Z,12.09
2023-07-03T13:39:56.715Z,11.69
2023-07-03T13:42:36.485Z,11.88
2023-07-03T13:45:22.546Z,11.86
2023-07-03T13:48:04.661Z,12.03
2023-07-03T13:50:34.180Z,12.13
2023-07-03T13:53:06.208Z,12.21
2023-07-03T13:55:42.087Z,12.22
2023-07-03T13:58:25.101Z,12.15
2023-07-03T14:01:26.360Z,12.17
2023-07-03T14:03:59.373Z,12.22
2023-07-03T14:06:40.394Z,12.40
2023-07-03T14:09:13.419Z,12.52
2023-07-03T14:11:56.161Z,12.64
2023-07-03T14:14:34.648Z,12.69
2023-07-03T14:17:37.249Z,12.75
2023-07-03T14:20:10.590Z,12.83
2023-07-03T14:22:46.781Z,12.70
2023-07-03T14:25:38.405Z,12.64
2023-07-03T14:28:15.914Z,12.71
2023-07-03T14:30:48.614Z,12.61
2023-07-03T14:33:27.330Z,12.71
2023-07-03T14:36:23.379Z,12.84
2023-07-03T14:39:03.028Z,12.92
2023-07-03T14:41:35.936Z,12.93
2023-07-03T14:44:10.273Z,12.91
2023-07-03T14:46:39.540Z,12.97
2023-07-03T14:49:15.872Z,13.03
2023-07-03T14:51:48.233Z,13.11
2023-07-03T14:54:23.981Z,13.18
2023-07-03T14:57:04.332Z,13.22
2023-07-03T14:59:36.194Z,13.23
2023-07-03T15:05:29.361Z,13.42
2023-07-03T15:08:30.995Z,13.57
2023-07-03T15:11:19.445Z,13.67
2023-07-03T15:13:55.898Z,13.73
2023-07-03T15:16:38.586Z,13.70
2023-07-03T15:19:39.468Z,13.84
2023-07-03T15:22:13.304Z,13.94
2023-07-03T15:24:45.021Z,13.93
2023-07-03T15:27:16.000Z,14.00
2023-07-03T15:30:05.825Z,14.07
2023-07-03T15:32:40.429Z,14.19
2023-07-03T15:35:12.877Z,14.19
2023-07-03T15:37:45.062Z,14.55
2023-07-03T15:40:19.251Z,14.43
2023-07-03T15:42:53.579Z,14.47
2023-07-03T15:45:36.369Z,14.72
2023-07-03T15:48:12.726Z,14.75
2023-07-03T15:50:56.511Z,14.86
2023-07-03T15:53:45.857Z,14.63
2023-07-03T15:56:23.510Z,14.93
2023-07-03T15:58:55.826Z,14.98
2023-07-03T16:01:57.074Z,15.01
2023-07-03T16:04:28.414Z,15.23
2023-07-03T16:07:13.046Z,15.26
2023-07-03T16:09:45.351Z,15.37
2023-07-03T16:12:51.540Z,15.31
2023-07-03T16:15:24.863Z,15.43
2023-07-03T16:18:04.670Z,15.58
2023-07-03T16:20:52.187Z,15.76
2023-07-03T16:23:27.932Z,15.53
2023-07-03T16:26:09.788Z,15.58
2023-07-03T16:29:10.838Z,15.85
2023-07-03T16:31:56.675Z,15.90
2023-07-03T16:34:36.928Z,16.07
2023-07-03T16:38:17.935Z,16.35
2023-07-03T16:40:18.287Z,16.45
2023-07-03T16:46:56.987Z,16.73
2023-07-03T16:47:09.614Z,17.09
2023-07-03T16:49:43.417Z,17.15
2023-07-03T16:52:43.232Z,17.28
2023-07-03T16:57:35.980Z,17.53
2023-07-03T16:59:08.279Z,17.63
2023-07-03T17:01:45.378Z,17.67
2023-07-03T17:05:03.730Z,17.98
2023-07-03T17:07:44.733Z,18.09
2023-07-03T17:10:25.361Z,18.16
2023-07-03T17:12:58.316Z,18.21
2023-07-03T17:15:38.810Z,18.35
2023-07-03T17:18:14.421Z,18.53
2023-07-03T17:20:45.266Z,18.66
2023-07-03T17:23:24.158Z,18.76
2023-07-03T17:26:06.094Z,18.88
2023-07-03T17:28:49.601Z,19.06
2023-07-03T17:31:27.644Z,19.30
2023-07-03T17:34:00.197Z,19.35
2023-07-03T17:36:33.702Z,19.33
2023-07-03T17:39:11.624Z,19.51
2023-07-03T17:41:52.476Z,19.67
2023-07-03T17:44:25.048Z,19.83
2023-07-03T17:47:25.520Z,19.97
2023-07-03T17:50:23.227Z,20.07
2023-07-03T17:53:16.220Z,20.27
2023-07-03T17:55:46.546Z,20.37
2023-07-03T17:58:29.846Z,20.43
2023-07-03T18:01:05.400Z,20.58
2023-07-03T18:07:29.423Z,20.98
2023-07-03T18:09:58.616Z,21.14
2023-07-03T18:12:31.494Z,20.98
2023-07-03T18:15:05.770Z,21.20
2023-07-03T18:17:41.731Z,21.41
2023-07-03T18:20:14.971Z,21.58
2023-07-03T18:22:55.823Z,21.70
2023-07-03T18:25:30.534Z,21.82
2023-07-03T18:28:10.334Z,21.85
2023-07-03T18:30:39.698Z,22.21
2023-07-03T18:34:10.146Z,22.44
2023-07-03T18:36:07.371Z,22.52
2023-07-03T18:38:44.760Z,22.75
2023-07-03T18:41:46.948Z,23.00
2023-07-03T18:44:27.909Z,23.13
2023-07-03T18:47:19.357Z,23.26
2023-07-03T18:50:09.424Z,23.45
2023-07-03T18:52:59.294Z,23.80
2023-07-03T18:55:28.613Z,23.69
2023-07-03T18:58:00.394Z,23.77
2023-07-03T19:00:35.492Z,23.86
2023-07-03T19:03:28.798Z,24.06
2023-07-03T19:06:18.844Z,24.20
2023-07-03T19:08:48.386Z,24.31
2023-07-03T19:11:36.994Z,24.38
2023-07-03T19:14:08.798Z,24.50
2023-07-03T19:16:41.692Z,24.28
2023-07-03T19:19:16.267Z,24.39
2023-07-03T19:22:05.521Z,24.84
2023-07-03T19:24:47.796Z,24.72
2023-07-03T19:27:55.421Z,24.70
2023-07-03T19:31:17.838Z,24.98
2023-07-03T19:34:06.290Z,25.32
2023-07-03T19:36:43.243Z,25.30
2023-07-03T19:39:21.797Z,25.29
2023-07-03T19:41:51.297Z,25.32
2023-07-03T19:44:26.832Z,25.47
2023-07-03T19:47:04.220Z,25.55
2023-07-03T19:49:43.111Z,25.82
2023-07-03T19:52:26.993Z,25.68
2023-07-03T19:55:17.772Z,25.86
2023-07-03T19:57:57.042Z,25.79
2023-07-03T20:00:41.375Z,25.85
2023-07-03T20:03:17.557Z,26.06
2023-07-03T20:05:51.218Z,25.84
2023-07-03T20:08:43.971Z,25.81
2023-07-03T20:11:21.452Z,25.64
2023-07-03T20:13:55.423Z,26.01
2023-07-03T20:16:42.511Z,26.17
2023-07-03T20:19:23.588Z,26.19
2023-07-03T20:22:04.279Z,26.16
2023-07-03T20:24:40.491Z,26.18
2023-07-03T20:27:28.850Z,26.34
2023-07-03T20:30:00.757Z,26.07
2023-07-03T20:32:32.804Z,26.36
2023-07-03T20:35:49.194Z,26.34
2023-07-03T20:38:51.094Z,26.66
2023-07-03T20:41:33.415Z,26.95
2023-07-03T20:47:05.994Z,26.89
2023-07-03T20:49:42.655Z,27.18
2023-07-03T20:52:22.204Z,27.19
2023-07-03T20:55:24.843Z,27.44
2023-07-03T20:58:06.806Z,27.29
2023-07-03T21:01:28.737Z,27.57
2023-07-03T21:04:11.509Z,27.50
2023-07-03T21:07:12.654Z,27.26
2023-07-03T21:10:01.726Z,27.51
2023-07-03T21:12:45.819Z,27.77
2023-07-03T21:15:20.763Z,27.89
2023-07-03T21:18:06.420Z,28.05
2023-07-03T21:20:46.603Z,27.86
2023-07-03T21:23:24.089Z,28.03
2023-07-03T21:25:56.471Z,27.98
2023-07-03T21:28:31.960Z,28.20
2023-07-03T21:31:17.185Z,28.34
2023-07-03T21:34:12.970Z,28.49
2023-07-03T21:36:53.119Z,28.50
2023-07-03T21:39:48.233Z,28.42
2023-07-03T21:42:27.141Z,28.33
2023-07-03T21:48:38.861Z,28.55
2023-07-03T21:51:24.134Z,28.26
2023-07-03T21:54:04.415Z,28.69
2023-07-03T21:56:41.796Z,28.86
2023-07-03T21:59:23.891Z,28.91
2023-07-03T22:02:01.251Z,28.76
2023-07-03T22:04:41.141Z,28.78
2023-07-03T22:07:17.597Z,28.75
2023-07-03T22:09:49.923Z,28.63
2023-07-03T22:12:45.199Z,29.22
2023-07-03T22:15:17.294Z,28.70
2023-07-03T22:18:07.053Z,29.25
2023-07-03T22:21:00.894Z,29.42
2023-07-03T22:23:53.294Z,29.41
2023-07-03T22:26:52.445Z,29.41
2023-07-03T22:29:45.101Z,29.50
2023-07-03T22:32:21.959Z,29.42
2023-07-03T22:35:15.904Z,29.34
2023-07-03T22:38:05.118Z,29.51
2023-07-03T22:41:30.211Z,29.83
2023-07-03T22:44:04.345Z,29.71
2023-07-03T22:46:36.961Z,29.78
2023-07-03T22:49:27.853Z,29.60
2023-07-03T22:52:17.721Z,29.87
2023-07-03T22:54:55.275Z,29.77
2023-07-03T22:57:42.862Z,29.75
2023-07-03T23:00:36.336Z,29.86
2023-07-03T23:03:47.123Z,29.81
2023-07-03T23:06:51.016Z,29.84
2023-07-03T23:09:26.480Z,29.60
2023-07-03T23:12:13.148Z,29.60
2023-07-03T23:14:42.634Z,29.47
2023-07-03T23:17:45.077Z,29.54
2023-07-03T23:20:57.540Z,29.71
2023-07-03T23:23:32.382Z,29.81
2023-07-03T23:26:32.785Z,29.86
2023-07-03T23:29:14.112Z,29.62
2023-07-03T23:31:51.602Z,29.68
2023-07-03T23:34:24.226Z,29.79
2023-07-03T23:37:02.849Z,29.79
2023-07-03T23:39:35.828Z,29.75
2023-07-03T23:42:17.203Z,29.72
2023-07-03T23:45:01.345Z,29.61
2023-07-03T23:47:57.668Z,29.88
2023-07-03T23:50:41.863Z,29.88
2023-07-03T23:53:18.230Z,30.12
2023-07-03T23:58:38.336Z,29.71
2023-07-03T23:59:31.663Z,29.64
